To NAV CANADA Home Page Login to a new session Search on AWWS site Feedback and Comments Disclaimer Vers la page française équivalente Tips FAQ What's new on the site To the Forecasts and Observations / NOTAM section To "File a Flight Plan" website Publications and other links Update of the User's profile FIC Telephone Numbers My Weather Data Folder Route Weather Data Regional Weather Data Local Weather Data To the Forecasts and Observations / NOTAM section
Request Generated 08/28/2016 at 02:07:27 UTC . Weather information available at that time is displayed.

METAR/TAF

DEASE LAKE/BC    (show WxCam)

METAR CYDL 280200Z AUTO 03006KT 320V060 9SM FEW065 15/03 A2998 RMK
SLP155 DENSITY ALT 3100FT=
METAR CYDL 280100Z AUTO 02006G15KT 350V060 9SM SCT065 16/03 A2997 RMK
SLP151 DENSITY ALT 3300FT=
METAR CYDL 280000Z AUTO 02007G15KT 360V070 9SM SCT060 16/03 A2998 RMK
SLP153 DENSITY ALT 3300FT=

*** REMARK        : Forecast period has ended; this was the last TAF issued
*** REMARQUE : La période de prévision est échue; ceci était le dernier TAF qui a été émis
TAF CYDL 272338Z 2800/2802 02008KT P6SM SCT060 TEMPO 2800/2802 BKN060
RMK FCST BASED ON AUTO OBS. NXT FCST WILL BE ISSUED AT 281545Z=
Your time UTC time
Weather data provided by Environment Canada and NAV CANADA